Time;durP1;ratioP1;P1;durP2;ratioP2;P2;SDS_P1;SDS_P2;PMS_P1;PMS_P2;Temp;Humidity;BMP_temperature;BMP_pressure;BME280_temperature;BME280_humidity;BME280_pressure;Samples;Min_cycle;Max_cycle;Signal;HPM_P1;HPM_P2
2022/05/30 00:01:17;;;;;;;6.43;3.00;;;;;;;;;;5080317;28;20027;-82
2022/05/30 00:03:43;;;;;;;8.85;3.25;;;;;;;;;;5094973;28;20452;-83
2022/05/30 00:06:10;;;;;;;4.68;2.90;;;;;;;;;;5091132;28;20048;-82
2022/05/30 00:08:40;;;;;;;11.55;2.90;;;;;;;;;;5088903;28;20020;-83
2022/05/30 00:11:07;;;;;;;7.22;2.97;;;;;;;;;;5091310;28;20082;-83
2022/05/30 00:13:34;;;;;;;5.22;2.90;;;;;;;;;;5083895;28;20065;-81
2022/05/30 00:16:04;;;;;;;4.30;3.03;;;;;;;;;;5087102;28;20027;-83
2022/05/30 00:18:32;;;;;;;6.85;2.97;;;;;;;;;;5087823;28;20650;-81
2022/05/30 00:20:58;;;;;;;4.45;3.10;;;;;;;;;;5092498;28;20167;-83
2022/05/30 00:23:24;;;;;;;9.63;2.97;;;;;;;;;;5092381;28;20059;-83
2022/05/30 00:25:51;;;;;;;7.07;3.28;;;;;;;;;;5089414;28;20039;-83
2022/05/30 00:28:19;;;;;;;5.53;3.10;;;;;;;;;;5089263;28;20081;-80
2022/05/30 00:30:46;;;;;;;7.07;3.08;;;;;;;;;;5088150;28;20028;-83
2022/05/30 00:33:13;;;;;;;4.43;3.10;;;;;;;;;;5070961;28;20032;-83
2022/05/30 00:35:42;;;;;;;3.67;2.80;;;;;;;;;;5091906;28;20070;-85
2022/05/30 00:38:08;;;;;;;4.72;2.95;;;;;;;;;;5091648;28;20168;-83
2022/05/30 00:40:35;;;;;;;4.35;2.90;;;;;;;;;;5079099;28;20025;-83
2022/05/30 00:43:39;;;;;;;3.85;2.75;;;;;;;;;;5087430;28;20030;-82
2022/05/30 00:46:12;;;;;;;4.68;3.15;;;;;;;;;;5013283;28;20575;-85
2022/05/30 00:48:55;;;;;;;6.13;3.40;;;;;;;;;;4995367;28;20121;-83
2022/05/30 00:51:33;;;;;;;6.28;3.03;;;;;;;;;;4996433;28;20065;-83
2022/05/30 00:54:00;;;;;;;5.65;3.40;;;;;;;;;;4999326;28;20478;-83
2022/05/30 00:56:31;;;;;;;5.68;3.40;;;;;;;;;;5025085;28;20041;-85
2022/05/30 00:58:58;;;;;;;9.73;3.47;;;;;;;;;;5010485;28;20058;-85
2022/05/30 01:01:24;;;;;;;4.30;3.08;;;;;;;;;;4997933;28;20034;-84
2022/05/30 01:06:37;;;;;;;12.00;3.47;;;;;;;;;;5010822;28;20047;-85
2022/05/30 01:09:06;;;;;;;8.27;3.30;;;;;;;;;;4993904;28;20022;-84
2022/05/30 01:11:47;;;;;;;6.20;3.33;;;;;;;;;;5008899;28;20025;-85
2022/05/30 01:14:14;;;;;;;4.90;3.47;;;;;;;;;;5028735;28;20115;-86
2022/05/30 01:16:40;;;;;;;5.65;3.50;;;;;;;;;;5023821;28;20030;-83
2022/05/30 01:19:11;;;;;;;6.30;3.75;;;;;;;;;;5003825;28;20076;-85
2022/05/30 01:21:45;;;;;;;6.20;3.38;;;;;;;;;;5077278;28;20028;-83
2022/05/30 01:24:26;;;;;;;7.60;3.50;;;;;;;;;;5095979;28;20035;-85
2022/05/30 01:27:10;;;;;;;5.85;3.30;;;;;;;;;;5081785;28;20093;-85
2022/05/30 01:29:48;;;;;;;7.78;3.30;;;;;;;;;;5057883;28;20417;-85
2022/05/30 01:32:19;;;;;;;8.80;3.17;;;;;;;;;;5086267;28;20100;-83
2022/05/30 01:34:45;;;;;;;10.13;4.45;;;;;;;;;;5071033;28;20039;-84
2022/05/30 01:37:11;;;;;;;5.95;3.30;;;;;;;;;;5090596;28;20103;-84
2022/05/30 01:39:39;;;;;;;6.32;3.40;;;;;;;;;;5077139;28;20027;-84
2022/05/30 01:42:06;;;;;;;6.07;3.10;;;;;;;;;;5084122;28;20028;-82
2022/05/30 01:44:32;;;;;;;4.55;2.80;;;;;;;;;;5075370;28;20423;-84
2022/05/30 01:46:58;;;;;;;5.88;3.30;;;;;;;;;;5078265;28;20389;-83
2022/05/30 01:49:24;;;;;;;7.90;3.85;;;;;;;;;;5076779;28;20030;-85
2022/05/30 01:51:53;;;;;;;5.97;3.20;;;;;;;;;;5069045;28;20114;-85
2022/05/30 01:54:27;;;;;;;4.95;3.53;;;;;;;;;;5079520;28;20060;-84
2022/05/30 01:56:54;;;;;;;6.38;3.60;;;;;;;;;;5069841;28;20039;-83
2022/05/30 01:59:20;;;;;;;8.77;3.40;;;;;;;;;;5076859;28;20044;-82
2022/05/30 02:01:46;;;;;;;10.88;3.60;;;;;;;;;;5080738;28;20020;-83
2022/05/30 02:04:12;;;;;;;5.90;3.75;;;;;;;;;;5078118;28;20389;-84
2022/05/30 02:06:39;;;;;;;6.82;3.13;;;;;;;;;;5075207;28;20040;-83
2022/05/30 02:09:05;;;;;;;10.80;3.10;;;;;;;;;;5058386;28;20027;-84
2022/05/30 02:11:31;;;;;;;4.13;3.13;;;;;;;;;;5077229;28;20034;-84
2022/05/30 02:13:58;;;;;;;5.07;3.00;;;;;;;;;;5065127;28;20025;-81
2022/05/30 02:19:11;;;;;;;4.65;3.25;;;;;;;;;;5081077;28;20031;-82
2022/05/30 02:21:40;;;;;;;5.70;3.67;;;;;;;;;;5063911;28;20035;-79
2022/05/30 02:24:07;;;;;;;4.25;3.30;;;;;;;;;;5075749;28;20051;-83
2022/05/30 02:26:35;;;;;;;8.55;3.58;;;;;;;;;;5091553;28;20032;-82
2022/05/30 02:29:12;;;;;;;7.07;3.58;;;;;;;;;;5099012;28;20032;-83
2022/05/30 02:31:38;;;;;;;6.45;3.80;;;;;;;;;;5093831;28;20020;-83
2022/05/30 02:36:50;;;;;;;7.53;4.00;;;;;;;;;;5084404;28;20046;-84
2022/05/30 02:39:22;;;;;;;6.80;3.88;;;;;;;;;;5080687;28;20025;-83
2022/05/30 02:41:49;;;;;;;8.80;4.10;;;;;;;;;;5075507;28;20042;-83
2022/05/30 02:44:19;;;;;;;11.68;4.45;;;;;;;;;;5076664;28;20382;-82
2022/05/30 02:46:55;;;;;;;7.90;3.45;;;;;;;;;;5079800;28;20147;-80
2022/05/30 02:49:22;;;;;;;7.50;3.50;;;;;;;;;;5072486;28;20485;-82
2022/05/30 02:51:48;;;;;;;7.65;3.88;;;;;;;;;;5094440;28;20385;-79
2022/05/30 02:54:15;;;;;;;7.80;3.90;;;;;;;;;;5073332;28;20439;-83
2022/05/30 02:56:43;;;;;;;7.80;3.95;;;;;;;;;;5063772;28;20032;-84
2022/05/30 02:59:10;;;;;;;7.90;4.05;;;;;;;;;;5079653;28;20054;-83
2022/05/30 03:01:38;;;;;;;9.77;3.70;;;;;;;;;;5074038;28;20400;-83
2022/05/30 03:04:05;;;;;;;6.72;4.07;;;;;;;;;;5075671;28;20081;-82
2022/05/30 03:06:31;;;;;;;6.13;4.22;;;;;;;;;;5092644;28;20119;-85
2022/05/30 03:08:59;;;;;;;6.57;4.35;;;;;;;;;;5062685;28;20033;-85
2022/05/30 03:11:25;;;;;;;9.88;4.68;;;;;;;;;;5060249;28;20028;-84
2022/05/30 03:13:52;;;;;;;5.78;3.70;;;;;;;;;;5093450;28;20020;-83
2022/05/30 03:16:18;;;;;;;10.45;4.05;;;;;;;;;;5108193;28;20035;-84
2022/05/30 03:18:44;;;;;;;8.18;3.90;;;;;;;;;;5072311;28;20028;-81
2022/05/30 03:21:10;;;;;;;11.05;4.85;;;;;;;;;;5073522;28;20031;-85
2022/05/30 03:23:36;;;;;;;9.43;4.95;;;;;;;;;;5093409;28;20103;-81
2022/05/30 03:26:02;;;;;;;13.15;5.15;;;;;;;;;;5076644;28;20047;-85
2022/05/30 03:28:28;;;;;;;11.55;5.47;;;;;;;;;;5067793;28;20024;-83
2022/05/30 03:30:55;;;;;;;10.13;4.57;;;;;;;;;;5070329;28;20111;-83
2022/05/30 03:33:21;;;;;;;12.00;4.55;;;;;;;;;;5084630;28;21445;-83
2022/05/30 03:35:47;;;;;;;13.95;5.40;;;;;;;;;;5075036;28;20067;-84
2022/05/30 03:38:13;;;;;;;9.68;5.30;;;;;;;;;;5092672;28;20016;-83
2022/05/30 03:40:40;;;;;;;10.13;4.57;;;;;;;;;;5082406;28;20116;-85
2022/05/30 03:43:08;;;;;;;6.95;4.47;;;;;;;;;;5074745;28;20021;-84
2022/05/30 03:45:35;;;;;;;7.85;4.97;;;;;;;;;;5093060;28;20035;-83
2022/05/30 03:48:01;;;;;;;6.93;4.30;;;;;;;;;;5081528;28;20028;-84
2022/05/30 03:50:28;;;;;;;8.65;5.05;;;;;;;;;;5075446;28;20028;-84
2022/05/30 03:52:54;;;;;;;7.75;5.20;;;;;;;;;;5093353;28;20388;-84
2022/05/30 03:55:23;;;;;;;9.63;5.07;;;;;;;;;;5075831;28;20392;-84
2022/05/30 03:57:51;;;;;;;8.45;5.75;;;;;;;;;;5072672;28;20032;-84
2022/05/30 04:00:19;;;;;;;7.57;4.70;;;;;;;;;;5065872;28;20111;-84
2022/05/30 04:02:47;;;;;;;10.10;5.45;;;;;;;;;;5090930;28;20508;-83
2022/05/30 04:05:14;;;;;;;12.38;5.38;;;;;;;;;;5093232;28;20064;-85
2022/05/30 04:07:40;;;;;;;11.20;6.00;;;;;;;;;;5074360;28;20102;-85
2022/05/30 04:10:07;;;;;;;15.88;6.18;;;;;;;;;;5073519;28;20035;-85
2022/05/30 04:12:33;;;;;;;15.13;6.93;;;;;;;;;;5077496;28;20107;-84
2022/05/30 04:15:05;;;;;;;19.05;8.50;;;;;;;;;;5088397;28;20108;-84
2022/05/30 04:17:33;;;;;;;14.90;8.07;;;;;;;;;;5094014;28;20028;-85
2022/05/30 04:19:59;;;;;;;23.73;9.25;;;;;;;;;;5092273;28;20042;-84
2022/05/30 04:22:39;;;;;;;19.60;8.45;;;;;;;;;;5105025;28;20032;-82
2022/05/30 04:25:10;;;;;;;24.05;9.20;;;;;;;;;;5071754;28;20032;-84
2022/05/30 04:27:41;;;;;;;21.58;9.85;;;;;;;;;;5072269;28;20160;-84
2022/05/30 04:30:09;;;;;;;20.67;10.45;;;;;;;;;;5070333;28;20103;-84
2022/05/30 04:32:35;;;;;;;21.90;10.07;;;;;;;;;;5058528;28;20070;-84
2022/05/30 04:35:02;;;;;;;17.00;8.93;;;;;;;;;;5067777;28;20052;-84
2022/05/30 04:37:28;;;;;;;21.88;9.35;;;;;;;;;;5075199;28;20124;-82
2022/05/30 04:39:54;;;;;;;19.10;9.20;;;;;;;;;;5076193;28;20439;-83
2022/05/30 04:42:20;;;;;;;15.63;7.60;;;;;;;;;;5094081;28;20020;-81
2022/05/30 04:44:49;;;;;;;14.85;7.75;;;;;;;;;;5089982;28;20051;-84
2022/05/30 04:47:15;;;;;;;13.10;6.40;;;;;;;;;;5086533;28;20156;-84
2022/05/30 04:49:41;;;;;;;15.20;7.75;;;;;;;;;;5091646;28;20408;-82
2022/05/30 04:52:07;;;;;;;13.18;6.97;;;;;;;;;;5070533;28;20470;-82
2022/05/30 04:54:33;;;;;;;14.10;7.05;;;;;;;;;;5075277;28;20032;-87
2022/05/30 04:57:01;;;;;;;13.75;7.45;;;;;;;;;;5073887;28;20032;-85
2022/05/30 04:59:28;;;;;;;13.50;6.90;;;;;;;;;;5067246;28;20137;-87
2022/05/30 05:01:55;;;;;;;11.15;6.70;;;;;;;;;;5071531;28;20115;-81
2022/05/30 05:04:21;;;;;;;11.70;5.97;;;;;;;;;;5085335;28;20025;-82
2022/05/30 05:06:49;;;;;;;8.10;5.47;;;;;;;;;;5089980;28;20429;-80
2022/05/30 05:09:18;;;;;;;11.43;5.72;;;;;;;;;;5092204;28;20106;-77
2022/05/30 05:11:45;;;;;;;8.73;5.78;;;;;;;;;;5075960;28;20025;-86
2022/05/30 05:14:11;;;;;;;9.50;6.10;;;;;;;;;;5085090;28;20024;-88
2022/05/30 05:16:37;;;;;;;9.00;6.45;;;;;;;;;;5063926;28;20542;-85
2022/05/30 05:19:03;;;;;;;12.23;6.85;;;;;;;;;;5070988;28;20031;-83
2022/05/30 05:21:31;;;;;;;11.77;6.55;;;;;;;;;;5064682;28;20031;-84
2022/05/30 05:23:58;;;;;;;10.05;6.85;;;;;;;;;;5071456;28;20043;-81
2022/05/30 05:26:24;;;;;;;12.20;6.95;;;;;;;;;;5070573;28;20036;-84
2022/05/30 05:28:50;;;;;;;11.27;6.22;;;;;;;;;;5069475;28;20077;-93
2022/05/30 05:31:27;;;;;;;10.45;6.28;;;;;;;;;;5078712;28;20123;-87
2022/05/30 05:33:54;;;;;;;9.68;6.85;;;;;;;;;;5089155;28;20113;-89
2022/05/30 05:36:24;;;;;;;11.98;6.32;;;;;;;;;;5087569;28;20402;-89
2022/05/30 05:38:50;;;;;;;10.48;6.35;;;;;;;;;;5093989;28;20023;-91
2022/05/30 05:41:17;;;;;;;12.68;7.13;;;;;;;;;;5080825;28;20397;-87
2022/05/30 05:43:43;;;;;;;11.20;6.60;;;;;;;;;;5072315;28;20024;-74
2022/05/30 05:46:13;;;;;;;14.82;7.55;;;;;;;;;;5087388;28;20397;-74
2022/05/30 05:48:41;;;;;;;11.50;5.93;;;;;;;;;;5084500;28;20492;-74
2022/05/30 05:51:08;;;;;;;16.73;6.90;;;;;;;;;;5094468;28;20491;-74
2022/05/30 05:53:34;;;;;;;13.60;5.30;;;;;;;;;;5085385;28;20077;-74
2022/05/30 05:56:09;;;;;;;10.05;6.35;;;;;;;;;;5068668;28;20561;-75
2022/05/30 05:58:35;;;;;;;15.73;6.70;;;;;;;;;;5090851;28;20543;-79
2022/05/30 06:01:06;;;;;;;10.25;6.97;;;;;;;;;;5095879;28;20028;-80
2022/05/30 06:03:32;;;;;;;8.85;6.25;;;;;;;;;;5071103;28;20047;-79
2022/05/30 06:05:58;;;;;;;11.63;7.15;;;;;;;;;;5069171;28;20037;-77
2022/05/30 06:08:24;;;;;;;14.35;7.55;;;;;;;;;;5083935;28;20033;-75
2022/05/30 06:11:05;;;;;;;10.13;6.20;;;;;;;;;;5094526;28;20020;-76
2022/05/30 06:13:33;;;;;;;10.27;6.30;;;;;;;;;;5090725;28;20172;-76
2022/05/30 06:15:59;;;;;;;8.95;6.45;;;;;;;;;;5085002;28;20024;-82
2022/05/30 06:18:26;;;;;;;9.18;5.28;;;;;;;;;;5062589;28;20028;-79
2022/05/30 06:20:57;;;;;;;7.57;5.28;;;;;;;;;;5076865;28;20051;-83
2022/05/30 06:23:23;;;;;;;9.20;6.40;;;;;;;;;;5072478;28;20032;-79
2022/05/30 06:25:53;;;;;;;8.40;5.25;;;;;;;;;;5070634;28;20044;-77
2022/05/30 06:28:19;;;;;;;8.95;5.38;;;;;;;;;;5073562;28;20086;-86
2022/05/30 06:30:55;;;;;;;9.68;6.10;;;;;;;;;;5070556;28;20128;-89
2022/05/30 06:33:22;;;;;;;9.32;5.90;;;;;;;;;;5076039;28;20036;-88
2022/05/30 06:35:48;;;;;;;12.27;6.22;;;;;;;;;;5072918;28;20039;-79
2022/05/30 06:38:14;;;;;;;12.82;6.00;;;;;;;;;;5069991;28;20067;-86
2022/05/30 06:40:42;;;;;;;11.02;5.65;;;;;;;;;;5077886;28;20032;-84
2022/05/30 06:43:09;;;;;;;12.52;7.05;;;;;;;;;;5063001;28;20423;-82
2022/05/30 06:45:35;;;;;;;10.52;6.50;;;;;;;;;;5083765;28;20028;-91
2022/05/30 06:48:01;;;;;;;10.57;6.18;;;;;;;;;;5090691;28;20129;-78
2022/05/30 06:50:28;;;;;;;9.30;5.25;;;;;;;;;;5063901;28;20488;-90
2022/05/30 06:52:54;;;;;;;9.85;5.65;;;;;;;;;;5088357;28;20051;-89
2022/05/30 06:55:20;;;;;;;7.72;5.43;;;;;;;;;;5069155;28;20046;-92
2022/05/30 07:00:33;;;;;;;9.88;6.28;;;;;;;;;;5092225;28;20044;-85
2022/05/30 07:03:03;;;;;;;6.22;5.00;;;;;;;;;;5075607;28;20032;-94
2022/05/30 07:05:31;;;;;;;6.30;4.70;;;;;;;;;;5073424;28;20150;-80
2022/05/30 07:07:58;;;;;;;8.48;5.57;;;;;;;;;;5093735;28;20055;-81
2022/05/30 07:10:25;;;;;;;8.43;5.47;;;;;;;;;;5092671;28;20030;-80
2022/05/30 07:12:51;;;;;;;11.52;6.13;;;;;;;;;;5095454;28;20020;-81
2022/05/30 07:15:17;;;;;;;7.38;5.20;;;;;;;;;;5074827;28;20093;-78
2022/05/30 07:17:43;;;;;;;8.18;5.07;;;;;;;;;;5094566;28;20103;-76
2022/05/30 07:20:10;;;;;;;6.95;4.93;;;;;;;;;;5069556;28;20029;-77
2022/05/30 07:22:36;;;;;;;6.88;5.25;;;;;;;;;;5086970;28;20378;-83
2022/05/30 07:25:02;;;;;;;6.70;4.82;;;;;;;;;;5089995;28;20118;-83
2022/05/30 07:27:31;;;;;;;7.90;5.00;;;;;;;;;;5068963;28;20051;-86
2022/05/30 07:30:00;;;;;;;5.68;4.70;;;;;;;;;;5068126;28;20500;-88
2022/05/30 07:32:26;;;;;;;8.68;5.50;;;;;;;;;;5065658;28;20044;-83
2022/05/30 07:34:52;;;;;;;9.80;5.63;;;;;;;;;;5072877;28;20086;-88
2022/05/30 07:37:18;;;;;;;10.15;5.55;;;;;;;;;;5065601;28;20055;-86
2022/05/30 07:39:59;;;;;;;9.75;5.93;;;;;;;;;;5065659;28;20028;-86
2022/05/30 07:42:42;;;;;;;11.32;6.90;;;;;;;;;;5066351;28;20476;-85
2022/05/30 07:45:26;;;;;;;7.30;5.10;;;;;;;;;;5068386;28;20040;-90
2022/05/30 07:47:53;;;;;;;11.50;5.80;;;;;;;;;;5066090;28;20035;-87
2022/05/30 07:50:53;;;;;;;9.10;5.72;;;;;;;;;;5068063;28;20466;-90
2022/05/30 07:53:19;;;;;;;8.75;6.00;;;;;;;;;;5082976;28;20032;-79
2022/05/30 07:55:45;;;;;;;7.70;5.53;;;;;;;;;;5096317;28;20020;-77
2022/05/30 07:58:12;;;;;;;9.63;5.45;;;;;;;;;;5074902;28;20076;-76
2022/05/30 08:00:38;;;;;;;9.95;5.00;;;;;;;;;;5089870;28;20024;-76
2022/05/30 08:03:11;;;;;;;7.38;4.60;;;;;;;;;;5061648;28;20111;-78
2022/05/30 08:05:43;;;;;;;9.27;4.70;;;;;;;;;;5082649;28;20022;-79
2022/05/30 08:08:09;;;;;;;7.07;4.60;;;;;;;;;;5092931;28;20081;-78
2022/05/30 08:10:35;;;;;;;7.70;4.40;;;;;;;;;;5094374;28;20018;-77
2022/05/30 08:13:02;;;;;;;7.15;4.93;;;;;;;;;;5088597;28;20020;-90
2022/05/30 08:15:28;;;;;;;8.40;4.57;;;;;;;;;;5069932;28;20023;-81
2022/05/30 08:17:55;;;;;;;5.95;4.20;;;;;;;;;;5096342;28;20023;-92
2022/05/30 08:20:21;;;;;;;7.88;5.30;;;;;;;;;;5074888;28;20031;-76
2022/05/30 08:22:47;;;;;;;6.63;4.60;;;;;;;;;;5082890;28;20044;-76
2022/05/30 08:25:15;;;;;;;7.45;5.38;;;;;;;;;;5089805;28;20331;-76
2022/05/30 08:27:45;;;;;;;8.45;4.82;;;;;;;;;;5091063;28;20028;-75
2022/05/30 08:30:12;;;;;;;8.50;4.75;;;;;;;;;;5092482;28;20028;-76
2022/05/30 08:32:39;;;;;;;7.13;5.07;;;;;;;;;;5086815;28;20495;-83
2022/05/30 08:35:06;;;;;;;7.70;5.60;;;;;;;;;;5067449;28;20169;-76
2022/05/30 08:37:33;;;;;;;9.55;6.18;;;;;;;;;;5065870;28;20184;-84
2022/05/30 08:42:45;;;;;;;7.78;5.80;;;;;;;;;;5100321;28;20035;-85
2022/05/30 08:45:19;;;;;;;10.27;6.68;;;;;;;;;;5058411;28;20386;-82
2022/05/30 08:47:48;;;;;;;9.63;6.22;;;;;;;;;;5070296;28;20040;-83
2022/05/30 08:50:22;;;;;;;9.07;5.95;;;;;;;;;;5068897;28;20086;-87
2022/05/30 08:52:56;;;;;;;8.07;5.38;;;;;;;;;;5060527;28;20051;-90
2022/05/30 08:55:41;;;;;;;11.48;5.20;;;;;;;;;;5075170;28;20020;-79
2022/05/30 08:58:15;;;;;;;8.18;5.63;;;;;;;;;;5067283;28;20066;-89
2022/05/30 09:00:51;;;;;;;7.13;5.50;;;;;;;;;;5098957;28;20488;-85
2022/05/30 09:03:21;;;;;;;8.27;5.90;;;;;;;;;;5069242;28;20073;-85
2022/05/30 09:05:51;;;;;;;9.32;6.40;;;;;;;;;;5101437;28;20028;-89
2022/05/30 09:08:39;;;;;;;10.35;6.90;;;;;;;;;;5085006;28;20036;-84
2022/05/30 09:11:38;;;;;;;9.10;6.32;;;;;;;;;;5069196;28;20032;-79
2022/05/30 09:14:09;;;;;;;9.52;6.18;;;;;;;;;;4991381;28;20125;-74
2022/05/30 09:16:41;;;;;;;10.40;6.35;;;;;;;;;;5012021;28;20192;-75
2022/05/30 09:19:09;;;;;;;7.28;6.30;;;;;;;;;;5012975;28;20498;-76
2022/05/30 09:21:35;;;;;;;7.57;6.28;;;;;;;;;;5012562;28;20104;-75
2022/05/30 09:24:02;;;;;;;9.18;6.65;;;;;;;;;;5012379;28;20117;-77
2022/05/30 09:26:32;;;;;;;8.48;6.32;;;;;;;;;;5013630;28;20029;-78
2022/05/30 09:29:03;;;;;;;7.72;5.90;;;;;;;;;;5014366;28;20065;-72
2022/05/30 09:31:29;;;;;;;7.93;6.35;;;;;;;;;;5012850;28;20034;-87
2022/05/30 09:33:57;;;;;;;8.38;5.95;;;;;;;;;;5009982;28;20042;-78
2022/05/30 09:36:25;;;;;;;8.32;5.65;;;;;;;;;;5012834;28;20482;-83
2022/05/30 09:38:59;;;;;;;6.18;5.22;;;;;;;;;;5013180;28;20192;-79
2022/05/30 09:41:26;;;;;;;7.03;4.55;;;;;;;;;;5014186;28;20030;-84
2022/05/30 09:43:54;;;;;;;5.65;3.95;;;;;;;;;;5014125;28;20484;-84
2022/05/30 09:46:20;;;;;;;6.25;4.25;;;;;;;;;;5013158;28;20042;-82
2022/05/30 09:49:16;;;;;;;6.10;4.45;;;;;;;;;;5023410;28;20053;-81
2022/05/30 09:51:43;;;;;;;6.72;3.90;;;;;;;;;;5074590;28;20486;-81
2022/05/30 09:54:11;;;;;;;6.75;4.45;;;;;;;;;;5077730;28;20107;-80
2022/05/30 09:56:39;;;;;;;5.57;4.50;;;;;;;;;;5095435;28;20377;-84
2022/05/30 09:59:07;;;;;;;5.88;4.50;;;;;;;;;;5095241;28;20038;-74
2022/05/30 10:01:35;;;;;;;8.13;4.60;;;;;;;;;;5101560;28;20043;-74
2022/05/30 10:04:23;;;;;;;7.97;4.47;;;;;;;;;;5071093;28;20122;-76
2022/05/30 10:07:16;;;;;;;5.47;4.60;;;;;;;;;;5095407;28;20397;-77
2022/05/30 10:09:53;;;;;;;8.43;5.55;;;;;;;;;;5073636;28;20029;-78
2022/05/30 10:12:34;;;;;;;11.75;5.40;;;;;;;;;;5095814;28;20153;-79
2022/05/30 10:15:00;;;;;;;15.02;7.57;;;;;;;;;;5095476;28;20081;-78
2022/05/30 10:17:31;;;;;;;8.05;4.53;;;;;;;;;;5095546;28;20052;-70
2022/05/30 10:19:57;;;;;;;9.32;4.72;;;;;;;;;;5095591;28;20032;-83
2022/05/30 10:28:40;;;;;;;12.40;5.57;;;;;;;;;;5093806;28;20572;-71
2022/05/30 10:31:13;;;;;;;8.65;5.63;;;;;;;;;;5093716;28;20028;-76
2022/05/30 10:33:39;;;;;;;8.45;5.88;;;;;;;;;;5095175;28;20047;-75
2022/05/30 10:36:23;;;;;;;10.15;6.20;;;;;;;;;;5094882;28;20587;-76
2022/05/30 10:38:56;;;;;;;8.60;6.30;;;;;;;;;;5094744;28;20042;-72
2022/05/30 10:41:36;;;;;;;14.27;6.20;;;;;;;;;;5091820;28;20016;-70
2022/05/30 10:44:09;;;;;;;9.57;6.07;;;;;;;;;;5094223;28;20020;-75
2022/05/30 10:46:39;;;;;;;11.05;5.75;;;;;;;;;;5094804;28;20129;-73
2022/05/30 10:49:09;;;;;;;11.32;6.07;;;;;;;;;;5094743;28;20036;-74
2022/05/30 10:51:54;;;;;;;10.10;6.13;;;;;;;;;;5093680;28;20039;-75
2022/05/30 10:54:36;;;;;;;10.52;6.70;;;;;;;;;;5094718;28;20077;-68
2022/05/30 10:57:25;;;;;;;10.48;6.25;;;;;;;;;;5094839;28;20030;-76
2022/05/30 11:00:04;;;;;;;10.02;5.97;;;;;;;;;;4993044;28;20034;-77
2022/05/30 11:02:30;;;;;;;8.95;6.50;;;;;;;;;;4992106;28;20492;-74
2022/05/30 11:05:12;;;;;;;8.20;5.90;;;;;;;;;;4992831;28;20162;-79
2022/05/30 11:07:38;;;;;;;10.80;6.30;;;;;;;;;;4992822;28;20125;-77
2022/05/30 11:10:13;;;;;;;11.23;6.40;;;;;;;;;;4992879;28;20585;-72
2022/05/30 11:12:42;;;;;;;11.25;6.10;;;;;;;;;;4992031;28;20041;-77
2022/05/30 11:15:41;;;;;;;11.13;6.20;;;;;;;;;;4992901;28;20168;-76
2022/05/30 11:18:12;;;;;;;7.65;6.20;;;;;;;;;;4934736;29;20035;-74
2022/05/30 11:20:41;;;;;;;14.45;7.25;;;;;;;;;;4934718;29;20032;-78
2022/05/30 11:23:08;;;;;;;9.35;6.07;;;;;;;;;;4933940;29;20067;-78
2022/05/30 11:25:57;;;;;;;10.60;5.75;;;;;;;;;;4934721;29;20087;-76
2022/05/30 11:28:23;;;;;;;11.77;6.00;;;;;;;;;;4934509;29;20052;-77
2022/05/30 11:31:16;;;;;;;10.73;5.53;;;;;;;;;;4933972;29;20028;-76
2022/05/30 11:34:00;;;;;;;8.65;5.55;;;;;;;;;;4932682;29;20082;-75
2022/05/30 11:36:37;;;;;;;9.30;6.00;;;;;;;;;;4951553;28;20053;-76
2022/05/30 11:39:06;;;;;;;7.95;5.60;;;;;;;;;;4992417;28;20030;-78
2022/05/30 11:41:50;;;;;;;7.32;5.80;;;;;;;;;;4992401;28;20039;-70
2022/05/30 11:44:16;;;;;;;;;;;;;;;;;;5003619;28;20818;-76
2022/05/30 11:46:51;;;;;;;7.88;5.50;;;;;;;;;;5011655;28;19913;-79
2022/05/30 11:49:38;;;;;;;12.88;5.40;;;;;;;;;;5011690;28;20034;-78
2022/05/30 11:52:07;;;;;;;9.18;5.82;;;;;;;;;;5011866;28;20274;-80
2022/05/30 11:54:33;;;;;;;16.45;5.97;;;;;;;;;;5069015;28;20034;-78
2022/05/30 11:57:08;;;;;;;9.15;5.28;;;;;;;;;;5092988;28;20020;-76
2022/05/30 11:59:40;;;;;;;13.23;5.95;;;;;;;;;;5073359;28;20029;-81
2022/05/30 12:02:10;;;;;;;8.80;5.32;;;;;;;;;;5055260;28;20028;-80
2022/05/30 12:04:51;;;;;;;10.25;5.82;;;;;;;;;;5076236;28;20035;-81
2022/05/30 12:07:23;;;;;;;6.70;5.03;;;;;;;;;;5093108;28;20062;-81
2022/05/30 12:09:59;;;;;;;9.60;4.90;;;;;;;;;;5092629;28;20028;-81
2022/05/30 12:12:33;;;;;;;8.60;5.22;;;;;;;;;;5079570;28;20039;-80
2022/05/30 12:15:03;;;;;;;22.65;18.08;;;;;;;;;;5092023;28;20066;-80
2022/05/30 12:23:47;;;;;;;8.35;5.45;;;;;;;;;;5073063;28;20031;-80
2022/05/30 12:26:06;;;;;;;9.40;5.50;;;;;;;;;;5092412;28;20326;-83
2022/05/30 12:28:34;;;;;;;8.80;5.60;;;;;;;;;;5093038;28;20508;-80
2022/05/30 12:31:02;;;;;;;14.63;5.63;;;;;;;;;;5060871;28;20148;-79
2022/05/30 12:33:28;;;;;;;14.25;6.63;;;;;;;;;;5073170;28;20021;-76
2022/05/30 12:36:16;;;;;;;6.72;5.40;;;;;;;;;;5091586;28;20054;-82
2022/05/30 12:38:53;;;;;;;8.20;5.78;;;;;;;;;;5091887;28;20028;-81
2022/05/30 12:41:42;;;;;;;8.05;5.53;;;;;;;;;;5094056;28;20016;-81
2022/05/30 12:44:46;;;;;;;9.85;5.45;;;;;;;;;;4978774;28;20034;-83
2022/05/30 12:47:18;;;;;;;11.93;6.35;;;;;;;;;;4964898;28;20369;-78
2022/05/30 12:49:49;;;;;;;9.35;6.32;;;;;;;;;;4992251;28;20411;-78
2022/05/30 12:52:19;;;;;;;14.85;5.97;;;;;;;;;;4995679;28;20030;-83
2022/05/30 12:54:59;;;;;;;11.63;6.22;;;;;;;;;;4995642;28;20144;-82
2022/05/30 12:57:34;;;;;;;10.45;5.82;;;;;;;;;;4994208;28;20034;-80
2022/05/30 13:00:06;;;;;;;11.00;6.22;;;;;;;;;;4994973;28;20023;-82
2022/05/30 13:02:50;;;;;;;9.52;6.13;;;;;;;;;;4995111;28;20035;-83
2022/05/30 13:05:18;;;;;;;11.43;6.45;;;;;;;;;;4995175;28;20295;-77
2022/05/30 13:07:44;;;;;;;9.95;6.35;;;;;;;;;;4978354;28;20132;-80
2022/05/30 13:10:10;;;;;;;17.65;7.00;;;;;;;;;;4994707;28;20037;-79
2022/05/30 13:12:53;;;;;;;9.73;6.05;;;;;;;;;;4994821;28;20030;-79
2022/05/30 13:15:22;;;;;;;12.15;6.13;;;;;;;;;;4978630;28;20053;-81
2022/05/30 13:17:51;;;;;;;10.90;6.00;;;;;;;;;;4977860;28;20436;-80
2022/05/30 13:20:19;;;;;;;10.15;6.13;;;;;;;;;;5010154;28;20123;-81
2022/05/30 13:22:48;;;;;;;8.63;5.68;;;;;;;;;;5096347;28;20020;-82
2022/05/30 13:25:43;;;;;;;10.05;6.45;;;;;;;;;;5069808;28;20020;-89
2022/05/30 13:28:19;;;;;;;15.52;6.85;;;;;;;;;;4994212;28;20137;-81
2022/05/30 13:30:46;;;;;;;8.30;6.82;;;;;;;;;;4994245;28;20109;-79
2022/05/30 13:33:12;;;;;;;11.43;6.95;;;;;;;;;;4994463;28;20480;-79
2022/05/30 13:35:39;;;;;;;10.07;6.88;;;;;;;;;;4994238;28;20069;-80
2022/05/30 13:38:08;;;;;;;9.32;7.35;;;;;;;;;;4977823;28;20124;-76
2022/05/30 13:40:34;;;;;;;11.80;7.80;;;;;;;;;;4977540;28;20088;-79
2022/05/30 13:43:01;;;;;;;10.57;7.50;;;;;;;;;;4994492;28;20030;-77
2022/05/30 13:45:30;;;;;;;11.15;7.47;;;;;;;;;;4994496;28;20042;-79
2022/05/30 13:48:03;;;;;;;10.30;8.23;;;;;;;;;;4981605;28;20047;-77
2022/05/30 13:51:05;;;;;;;9.27;6.93;;;;;;;;;;4989227;28;20038;-75
2022/05/30 13:53:34;;;;;;;10.20;7.97;;;;;;;;;;4972949;28;20495;-80
2022/05/30 13:56:10;;;;;;;9.50;7.45;;;;;;;;;;4959312;28;20101;-83
2022/05/30 13:58:37;;;;;;;13.00;7.63;;;;;;;;;;4975631;28;20042;-79
2022/05/30 14:01:05;;;;;;;9.38;7.40;;;;;;;;;;4984759;28;20113;-82
2022/05/30 14:03:32;;;;;;;12.13;7.70;;;;;;;;;;4987573;28;20066;-79
2022/05/30 14:05:58;;;;;;;12.05;6.93;;;;;;;;;;5031009;28;20057;-86
2022/05/30 14:08:30;;;;;;;11.75;7.63;;;;;;;;;;5030754;28;20553;-85
2022/05/30 14:10:56;;;;;;;13.00;7.32;;;;;;;;;;5031615;28;20040;-87
2022/05/30 14:13:31;;;;;;;9.65;7.05;;;;;;;;;;5028719;28;20092;-75
2022/05/30 14:15:58;;;;;;;13.05;7.43;;;;;;;;;;5033680;28;20031;-81
2022/05/30 14:18:29;;;;;;;11.68;7.38;;;;;;;;;;5032964;28;20025;-85
2022/05/30 14:20:56;;;;;;;10.45;7.10;;;;;;;;;;5047163;28;20423;-75
2022/05/30 14:23:23;;;;;;;10.27;7.60;;;;;;;;;;5048711;28;20029;-76
2022/05/30 14:25:50;;;;;;;9.88;7.22;;;;;;;;;;5049356;28;20021;-77
2022/05/30 14:28:26;;;;;;;10.05;6.55;;;;;;;;;;5082156;28;20127;-75
2022/05/30 14:30:52;;;;;;;12.88;6.57;;;;;;;;;;5070262;28;20541;-83
2022/05/30 14:33:24;;;;;;;8.35;6.20;;;;;;;;;;5092001;28;20059;-81
2022/05/30 14:35:52;;;;;;;9.82;7.00;;;;;;;;;;5089190;28;20056;-81
2022/05/30 14:38:25;;;;;;;11.15;6.20;;;;;;;;;;5061958;28;20055;-78
2022/05/30 14:40:53;;;;;;;9.13;6.65;;;;;;;;;;5089137;28;20024;-81
2022/05/30 14:43:23;;;;;;;12.43;6.50;;;;;;;;;;5076103;28;20028;-80
2022/05/30 14:46:00;;;;;;;9.07;7.25;;;;;;;;;;5089005;28;20158;-81
2022/05/30 14:48:26;;;;;;;8.55;6.88;;;;;;;;;;5084391;28;20119;-75
2022/05/30 14:50:55;;;;;;;8.35;7.15;;;;;;;;;;5083503;28;20066;-82
2022/05/30 14:53:24;;;;;;;15.57;7.35;;;;;;;;;;5060733;28;20090;-78
2022/05/30 14:55:51;;;;;;;12.23;6.90;;;;;;;;;;5072097;28;20040;-75
2022/05/30 14:58:23;;;;;;;9.77;7.00;;;;;;;;;;5100036;28;20511;-76
2022/05/30 15:00:59;;;;;;;10.70;7.05;;;;;;;;;;5085588;28;20465;-75
2022/05/30 15:06:12;;;;;;;14.55;7.43;;;;;;;;;;5077944;28;20106;-76
2022/05/30 15:08:38;;;;;;;11.73;6.90;;;;;;;;;;5096636;28;20031;-76
2022/05/30 15:11:17;;;;;;;8.88;6.63;;;;;;;;;;5067556;28;20029;-77
2022/05/30 15:13:50;;;;;;;11.23;6.45;;;;;;;;;;5092171;28;20034;-79
2022/05/30 15:16:16;;;;;;;11.00;6.55;;;;;;;;;;5082919;28;20126;-77
2022/05/30 15:18:43;;;;;;;10.35;7.03;;;;;;;;;;5063258;28;20032;-75
2022/05/30 15:21:10;;;;;;;8.95;6.90;;;;;;;;;;5092641;28;20028;-85
2022/05/30 15:23:39;;;;;;;10.68;7.15;;;;;;;;;;5080309;28;20047;-75
2022/05/30 15:26:05;;;;;;;11.85;7.55;;;;;;;;;;5088574;28;20095;-73